createdAt,value
2023-04-22T00:01:15.740Z,47.75
2023-04-22T00:03:42.405Z,48.37
2023-04-22T00:06:09.268Z,47.11
2023-04-22T00:08:35.744Z,48.10
2023-04-22T00:11:02.708Z,47.84
2023-04-22T00:13:29.197Z,47.32
2023-04-22T00:15:55.996Z,47.86
2023-04-22T00:18:22.428Z,47.44
2023-04-22T00:20:48.985Z,46.92
2023-04-22T00:23:15.619Z,47.26
2023-04-22T00:25:42.427Z,47.17
2023-04-22T00:28:09.057Z,47.20
2023-04-22T00:30:36.404Z,47.58
2023-04-22T00:33:03.027Z,47.27
2023-04-22T00:35:30.293Z,47.58
2023-04-22T00:37:56.861Z,46.45
2023-04-22T00:40:23.475Z,46.77
2023-04-22T00:42:50.841Z,46.66
2023-04-22T00:45:18.143Z,47.15
2023-04-22T00:47:45.961Z,47.21
2023-04-22T00:50:13.097Z,46.67
2023-04-22T00:52:39.589Z,46.05
2023-04-22T00:55:06.868Z,46.69
2023-04-22T00:57:35.588Z,46.60
2023-04-22T01:00:05.225Z,47.12
2023-04-22T01:02:32.681Z,46.73
2023-04-22T01:04:59.965Z,46.88
2023-04-22T01:07:26.503Z,47.74
2023-04-22T01:09:53.232Z,47.59
2023-04-22T01:12:20.060Z,48.95
2023-04-22T01:14:46.582Z,48.50
2023-04-22T01:17:14.572Z,47.79
2023-04-22T01:19:42.641Z,47.63
2023-04-22T01:22:12.582Z,47.59
2023-04-22T01:24:39.503Z,47.69
2023-04-22T01:27:06.357Z,47.77
2023-04-22T01:29:32.890Z,47.94
2023-04-22T01:32:01.012Z,47.60
2023-04-22T01:34:30.462Z,47.38
2023-04-22T01:36:57.383Z,46.99
2023-04-22T01:39:24.009Z,47.42
2023-04-22T01:41:51.172Z,47.17
2023-04-22T01:44:17.680Z,48.01
2023-04-22T01:46:44.113Z,48.20
2023-04-22T01:49:10.840Z,48.19
2023-04-22T01:51:37.404Z,47.88
2023-04-22T01:54:04.226Z,47.98
2023-04-22T01:56:30.698Z,47.87
2023-04-22T01:58:57.399Z,48.09
2023-04-22T02:01:24.582Z,48.14
2023-04-22T02:03:51.615Z,48.30
2023-04-22T02:06:18.330Z,48.63
2023-04-22T02:08:45.110Z,49.26
2023-04-22T02:11:12.760Z,48.54
2023-04-22T02:13:40.912Z,48.80
2023-04-22T02:16:08.191Z,48.31
2023-04-22T02:18:35.049Z,48.28
2023-04-22T02:21:01.506Z,48.66
2023-04-22T02:23:28.732Z,48.70
2023-04-22T02:25:55.965Z,48.57
2023-04-22T02:28:22.769Z,49.26
2023-04-22T02:30:49.198Z,49.35
2023-04-22T02:33:15.829Z,49.27
2023-04-22T02:35:42.261Z,49.92
2023-04-22T02:38:10.584Z,49.44
2023-04-22T02:40:37.041Z,49.50
2023-04-22T02:43:04.292Z,49.61
2023-04-22T02:45:30.782Z,49.99
2023-04-22T02:47:57.664Z,50.38
2023-04-22T02:50:24.153Z,50.49
2023-04-22T02:52:51.431Z,49.60
2023-04-22T02:55:17.967Z,49.98
2023-04-22T02:57:44.576Z,50.07
2023-04-22T03:00:11.490Z,49.45
2023-04-22T03:02:39.191Z,49.91
2023-04-22T03:05:12.349Z,49.91
2023-04-22T03:07:38.887Z,50.04
2023-04-22T03:10:06.081Z,50.15
2023-04-22T03:12:33.656Z,49.89
2023-04-22T03:15:00.329Z,50.05
2023-04-22T03:17:29.982Z,51.41
2023-04-22T03:19:58.571Z,50.64
2023-04-22T03:22:25.023Z,50.40
2023-04-22T03:24:56.038Z,51.12
2023-04-22T03:27:22.782Z,51.21
2023-04-22T03:29:49.271Z,50.97
2023-04-22T03:32:15.950Z,51.38
2023-04-22T03:34:42.630Z,51.14
2023-04-22T03:37:09.921Z,50.66
2023-04-22T03:39:36.865Z,51.70
2023-04-22T03:42:04.071Z,51.43
2023-04-22T03:44:30.918Z,51.39
2023-04-22T03:46:57.516Z,51.37
2023-04-22T03:49:29.589Z,52.41
2023-04-22T03:51:56.199Z,51.73
2023-04-22T03:54:25.331Z,52.27
2023-04-22T03:56:52.516Z,52.77
2023-04-22T03:59:21.298Z,51.77
2023-04-22T04:01:51.630Z,52.44
2023-04-22T04:04:21.002Z,52.10
2023-04-22T04:06:56.337Z,52.17
2023-04-22T04:09:23.116Z,52.16
2023-04-22T04:11:49.603Z,52.15
2023-04-22T04:14:17.565Z,52.84
2023-04-22T04:16:48.287Z,53.12
2023-04-22T04:19:23.644Z,52.65
2023-04-22T04:21:51.412Z,52.65
2023-04-22T04:24:18.459Z,53.24
2023-04-22T04:26:48.904Z,52.74
2023-04-22T04:29:20.577Z,53.04
2023-04-22T04:31:56.817Z,52.87
2023-04-22T04:34:24.410Z,53.46
2023-04-22T04:36:51.255Z,52.92
2023-04-22T04:39:29.103Z,52.65
2023-04-22T04:41:58.746Z,52.84
2023-04-22T04:44:27.299Z,52.32
2023-04-22T04:46:56.381Z,52.98
2023-04-22T04:49:22.897Z,52.91
2023-04-22T04:51:58.102Z,52.66
2023-04-22T04:54:26.208Z,52.79
2023-04-22T04:56:53.131Z,52.77
2023-04-22T04:59:19.529Z,52.40
2023-04-22T05:01:47.451Z,52.58
2023-04-22T05:04:14.641Z,52.71
2023-04-22T05:06:43.368Z,52.49
2023-04-22T05:09:10.108Z,52.36
2023-04-22T05:11:36.937Z,52.99
2023-04-22T05:14:10.479Z,53.03
2023-04-22T05:16:40.756Z,52.41
2023-04-22T05:19:08.566Z,53.06
2023-04-22T05:21:36.059Z,53.46
2023-04-22T05:24:03.762Z,53.69
2023-04-22T05:26:30.277Z,54.42
2023-04-22T05:28:56.928Z,52.55
2023-04-22T05:31:23.552Z,53.47
2023-04-22T05:33:50.698Z,53.05
2023-04-22T05:36:17.356Z,53.20
2023-04-22T05:38:46.396Z,52.79
2023-04-22T05:41:12.844Z,53.12
2023-04-22T05:43:39.558Z,52.36
2023-04-22T05:46:11.053Z,51.88
2023-04-22T05:48:39.826Z,52.14
2023-04-22T05:51:10.220Z,52.58
2023-04-22T05:53:36.697Z,52.17
2023-04-22T05:56:03.458Z,52.88
2023-04-22T05:58:30.210Z,52.57
2023-04-22T06:01:01.222Z,52.75
2023-04-22T06:03:49.162Z,52.90
2023-04-22T06:06:15.824Z,52.05
2023-04-22T06:08:42.580Z,52.94
2023-04-22T06:11:10.721Z,53.45
2023-04-22T06:13:37.223Z,52.44
2023-04-22T06:16:05.293Z,52.37
2023-04-22T06:18:32.654Z,52.22
2023-04-22T06:20:59.837Z,53.07
2023-04-22T06:23:26.538Z,52.95
2023-04-22T06:25:52.979Z,52.08
2023-04-22T06:28:19.522Z,52.31
2023-04-22T06:30:48.370Z,52.20
2023-04-22T06:33:15.792Z,52.82
2023-04-22T06:35:42.322Z,53.04
2023-04-22T06:38:08.941Z,52.30
2023-04-22T06:40:43.518Z,52.68
2023-04-22T06:43:17.455Z,52.08
2023-04-22T06:46:17.011Z,52.58
2023-04-22T06:49:01.868Z,51.55
2023-04-22T06:51:48.439Z,52.09
2023-04-22T06:54:15.194Z,52.30
2023-04-22T06:56:42.211Z,51.97
2023-04-22T06:59:09.276Z,50.92
2023-04-22T07:01:35.923Z,51.10
2023-04-22T07:04:02.431Z,50.89
2023-04-22T07:06:29.051Z,51.70
2023-04-22T07:08:55.557Z,51.35
2023-04-22T07:11:22.164Z,50.43
2023-04-22T07:13:58.325Z,50.72
2023-04-22T07:16:25.047Z,49.89
2023-04-22T07:18:51.474Z,50.12
2023-04-22T07:21:18.117Z,49.24
2023-04-22T07:23:44.616Z,49.21
2023-04-22T07:26:11.224Z,48.94
2023-04-22T07:28:37.788Z,48.38
2023-04-22T07:31:04.451Z,48.64
2023-04-22T07:33:30.945Z,48.61
2023-04-22T07:35:57.659Z,47.96
2023-04-22T07:38:24.761Z,48.45
2023-04-22T07:40:51.306Z,47.68
2023-04-22T07:43:17.792Z,47.70
2023-04-22T07:45:44.787Z,47.90
2023-04-22T07:48:11.463Z,48.70
2023-04-22T07:50:38.913Z,48.21
2023-04-22T07:53:05.917Z,46.38
2023-04-22T07:55:32.663Z,46.23
2023-04-22T07:58:00.881Z,47.40
2023-04-22T08:00:27.427Z,46.36
2023-04-22T08:02:53.945Z,45.65
2023-04-22T08:05:20.900Z,46.39
2023-04-22T08:07:47.375Z,46.74
2023-04-22T08:10:13.871Z,45.46
2023-04-22T08:12:40.426Z,45.51
2023-04-22T08:15:07.676Z,46.64
2023-04-22T08:17:34.165Z,44.78
2023-04-22T08:20:00.666Z,46.85
2023-04-22T08:22:27.495Z,45.62
2023-04-22T08:24:54.215Z,44.54
2023-04-22T08:27:23.572Z,45.71
2023-04-22T08:29:50.061Z,44.67
2023-04-22T08:32:16.946Z,43.67
2023-04-22T08:34:44.092Z,44.01
2023-04-22T08:37:10.624Z,42.93
2023-04-22T08:39:37.304Z,44.13
2023-04-22T08:42:04.156Z,42.97
2023-04-22T08:44:30.872Z,45.05
2023-04-22T08:47:02.118Z,44.44
2023-04-22T08:49:30.252Z,45.28
2023-04-22T08:51:56.956Z,43.26
2023-04-22T08:54:23.925Z,43.34
2023-04-22T08:56:51.001Z,42.87
2023-04-22T08:59:18.640Z,42.22
2023-04-22T09:01:51.336Z,44.12
2023-04-22T09:04:19.140Z,43.29
2023-04-22T09:06:45.985Z,42.26
2023-04-22T09:09:12.569Z,43.00
2023-04-22T09:11:39.065Z,43.43
2023-04-22T09:14:06.149Z,42.22
2023-04-22T09:16:33.944Z,43.29
2023-04-22T09:19:01.018Z,42.44
2023-04-22T09:21:28.877Z,42.10
2023-04-22T09:23:56.767Z,42.39
2023-04-22T09:26:26.181Z,43.22
2023-04-22T09:28:54.735Z,41.78
2023-04-22T09:31:22.331Z,43.05
2023-04-22T09:33:53.845Z,43.06
2023-04-22T09:36:37.729Z,41.90
2023-04-22T09:39:08.056Z,42.06
2023-04-22T09:41:40.105Z,40.85
2023-04-22T09:44:15.267Z,42.10
2023-04-22T09:46:43.191Z,40.88
2023-04-22T09:49:10.406Z,40.63
2023-04-22T09:51:41.532Z,41.62
2023-04-22T09:54:10.621Z,42.55
2023-04-22T09:56:50.597Z,42.35
2023-04-22T09:59:24.824Z,39.48
2023-04-22T10:02:04.053Z,39.97
2023-04-22T10:04:31.301Z,39.47
2023-04-22T10:06:58.038Z,41.14
2023-04-22T10:09:25.561Z,39.55
2023-04-22T10:11:54.947Z,39.41
2023-04-22T10:14:22.556Z,41.15
2023-04-22T10:16:52.292Z,39.30
2023-04-22T10:19:22.225Z,38.80
2023-04-22T10:21:54.590Z,37.70
2023-04-22T10:24:21.471Z,37.98
2023-04-22T10:26:57.873Z,37.74
2023-04-22T10:29:26.704Z,37.77
2023-04-22T10:31:56.913Z,36.81
2023-04-22T10:34:23.653Z,38.42
2023-04-22T10:37:01.969Z,37.35
2023-04-22T10:39:29.462Z,37.01
2023-04-22T10:42:06.336Z,37.81
2023-04-22T10:44:46.256Z,36.61
2023-04-22T10:47:31.591Z,37.40
2023-04-22T10:50:18.684Z,35.67
2023-04-22T10:52:51.459Z,39.24
2023-04-22T10:55:18.950Z,36.07
2023-04-22T10:57:47.777Z,34.43
2023-04-22T11:00:45.725Z,35.08
2023-04-22T11:03:20.623Z,35.33
2023-04-22T11:05:47.408Z,34.86
2023-04-22T11:08:18.020Z,34.84
2023-04-22T11:10:47.172Z,34.26
2023-04-22T11:13:21.540Z,34.30
2023-04-22T11:15:50.188Z,32.92
2023-04-22T11:18:25.180Z,35.37
2023-04-22T11:20:53.574Z,33.44
2023-04-22T11:23:28.343Z,34.61
2023-04-22T11:25:56.764Z,34.61
2023-04-22T11:28:23.540Z,33.79
2023-04-22T11:30:50.151Z,32.36
2023-04-22T11:33:17.762Z,32.94
2023-04-22T11:35:44.562Z,32.15
2023-04-22T11:38:10.998Z,32.43
2023-04-22T11:40:42.768Z,32.45
2023-04-22T11:43:11.852Z,31.95
2023-04-22T11:45:39.800Z,32.10
2023-04-22T11:48:07.758Z,31.19
2023-04-22T11:50:36.958Z,31.59
2023-04-22T11:53:12.593Z,33.49
2023-04-22T11:55:40.997Z,33.52
2023-04-22T11:58:09.796Z,34.27
2023-04-22T12:01:03.026Z,33.52
2023-04-22T12:03:31.240Z,33.53
2023-04-22T12:06:05.607Z,32.67
2023-04-22T12:08:44.498Z,33.58
2023-04-22T12:11:11.947Z,32.02
2023-04-22T12:13:38.513Z,32.35
2023-04-22T12:16:09.802Z,32.64
2023-04-22T12:18:39.022Z,29.60
2023-04-22T12:21:12.695Z,29.44
2023-04-22T12:23:48.463Z,29.93
2023-04-22T12:26:16.269Z,31.44
2023-04-22T12:28:43.813Z,29.52
2023-04-22T12:31:10.863Z,29.20
2023-04-22T12:33:37.900Z,28.71
2023-04-22T12:36:06.006Z,28.79
2023-04-22T12:38:32.983Z,28.79
2023-04-22T12:41:00.612Z,27.39
2023-04-22T12:43:27.303Z,29.50
2023-04-22T12:45:53.937Z,27.46
2023-04-22T12:48:20.646Z,28.57
2023-04-22T12:50:47.212Z,29.21
2023-04-22T12:53:13.638Z,28.00
2023-04-22T12:55:42.546Z,28.37
2023-04-22T12:58:10.929Z,29.24
2023-04-22T13:00:37.496Z,28.74
2023-04-22T13:03:04.114Z,29.35
2023-04-22T13:05:31.012Z,29.39
2023-04-22T13:08:06.444Z,29.87
2023-04-22T13:10:34.207Z,28.62
2023-04-22T13:13:17.079Z,28.16
2023-04-22T13:15:53.320Z,27.74
2023-04-22T13:18:22.083Z,28.67
2023-04-22T13:20:48.534Z,28.15
2023-04-22T13:23:16.870Z,28.10
2023-04-22T13:25:44.050Z,28.95
2023-04-22T13:28:11.370Z,28.32
2023-04-22T13:30:38.231Z,28.13
2023-04-22T13:33:04.642Z,28.50
2023-04-22T13:35:31.252Z,27.90
2023-04-22T13:37:58.043Z,28.79
2023-04-22T13:40:26.714Z,27.79
2023-04-22T13:42:53.735Z,27.50
2023-04-22T13:45:20.258Z,28.85
2023-04-22T13:47:46.935Z,28.40
2023-04-22T13:50:13.532Z,26.90
2023-04-22T13:52:39.991Z,27.62
2023-04-22T13:55:06.969Z,27.59
2023-04-22T13:57:33.447Z,25.41
2023-04-22T14:00:00.322Z,26.07
2023-04-22T14:02:27.029Z,25.29
2023-04-22T14:04:53.615Z,25.53
2023-04-22T14:07:20.212Z,26.15
2023-04-22T14:09:46.895Z,26.22
2023-04-22T14:12:13.472Z,27.94
2023-04-22T14:14:39.985Z,28.99
2023-04-22T14:17:06.716Z,29.48
2023-04-22T14:19:33.856Z,28.34
2023-04-22T14:22:00.352Z,27.09
2023-04-22T14:24:26.869Z,26.98
2023-04-22T14:26:54.187Z,27.16
2023-04-22T14:29:20.847Z,27.44
2023-04-22T14:31:47.377Z,26.66
2023-04-22T14:34:13.856Z,28.99
2023-04-22T14:36:40.437Z,28.44
2023-04-22T14:39:06.986Z,29.72
2023-04-22T14:41:33.438Z,27.75
2023-04-22T14:44:00.768Z,28.29
2023-04-22T14:46:27.261Z,28.70
2023-04-22T14:48:53.994Z,28.05
2023-04-22T14:51:20.836Z,29.28
2023-04-22T14:53:47.353Z,29.07
2023-04-22T14:56:14.094Z,29.51
2023-04-22T14:58:40.673Z,31.24
2023-04-22T15:01:07.703Z,30.25
2023-04-22T15:03:35.759Z,31.08
2023-04-22T15:06:02.829Z,30.34
2023-04-22T15:08:29.330Z,30.03
2023-04-22T15:10:55.971Z,30.06
2023-04-22T15:13:22.435Z,28.94
2023-04-22T15:15:48.916Z,29.83
2023-04-22T15:18:15.707Z,28.42
2023-04-22T15:20:42.232Z,28.00
2023-04-22T15:23:08.831Z,27.98
2023-04-22T15:25:35.769Z,28.06
2023-04-22T15:28:03.006Z,28.35
2023-04-22T15:30:29.578Z,29.22
2023-04-22T15:32:56.130Z,29.08
2023-04-22T15:35:23.776Z,31.06
2023-04-22T15:37:50.313Z,29.50
2023-04-22T15:40:16.734Z,30.49
2023-04-22T15:42:43.388Z,30.03
2023-04-22T15:45:10.302Z,30.39
2023-04-22T15:47:37.358Z,31.41
2023-04-22T15:50:08.571Z,31.35
2023-04-22T15:52:37.365Z,33.17
2023-04-22T15:55:05.054Z,31.91
2023-04-22T15:57:34.469Z,31.43
2023-04-22T16:00:12.666Z,32.01
2023-04-22T16:02:44.446Z,31.95
2023-04-22T16:05:11.850Z,31.59
2023-04-22T16:07:39.047Z,30.88
2023-04-22T16:10:06.340Z,30.82
2023-04-22T16:12:34.245Z,31.40
2023-04-22T16:15:01.318Z,31.96
2023-04-22T16:17:28.152Z,30.92
2023-04-22T16:19:54.926Z,32.26
2023-04-22T16:22:21.544Z,31.92
2023-04-22T16:24:48.019Z,32.21
2023-04-22T16:27:17.079Z,31.77
2023-04-22T16:29:43.895Z,32.38
2023-04-22T16:32:11.186Z,31.39
2023-04-22T16:34:38.304Z,32.14
2023-04-22T16:37:05.911Z,30.05
2023-04-22T16:39:32.734Z,31.35
2023-04-22T16:41:59.604Z,32.14
2023-04-22T16:44:26.084Z,31.60
2023-04-22T16:46:52.715Z,32.08
2023-04-22T16:49:19.469Z,33.28
2023-04-22T16:51:46.060Z,32.91
2023-04-22T16:54:12.447Z,36.44
2023-04-22T16:56:39.139Z,33.87
2023-04-22T16:59:05.654Z,35.27
2023-04-22T17:01:32.253Z,35.94
2023-04-22T17:03:58.918Z,35.98
2023-04-22T17:06:27.510Z,33.90
2023-04-22T17:08:54.102Z,37.01
2023-04-22T17:11:20.735Z,36.83
2023-04-22T17:13:47.150Z,38.70
2023-04-22T17:16:13.622Z,37.54
2023-04-22T17:18:40.092Z,37.26
2023-04-22T17:21:06.593Z,35.55
2023-04-22T17:23:33.036Z,35.28
2023-04-22T17:25:59.850Z,38.57
2023-04-22T17:28:26.587Z,38.97
2023-04-22T17:30:53.124Z,37.57
2023-04-22T17:33:19.717Z,38.50
2023-04-22T17:35:46.378Z,37.63
2023-04-22T17:38:14.061Z,36.52
2023-04-22T17:40:40.769Z,36.73
2023-04-22T17:43:07.241Z,36.46
2023-04-22T17:45:33.879Z,37.47
2023-04-22T17:48:00.410Z,37.67
2023-04-22T17:50:27.019Z,37.07
2023-04-22T17:52:53.675Z,38.18
2023-04-22T17:55:20.388Z,38.47
2023-04-22T17:57:46.935Z,38.06
2023-04-22T18:00:17.942Z,38.93
2023-04-22T18:02:44.563Z,38.82
2023-04-22T18:05:11.245Z,38.91
2023-04-22T18:07:37.677Z,39.83
2023-04-22T18:10:04.473Z,40.21
2023-04-22T18:12:31.308Z,40.12
2023-04-22T18:14:58.460Z,40.88
2023-04-22T18:17:25.091Z,41.37
2023-04-22T18:19:54.433Z,40.91
2023-04-22T18:22:25.629Z,40.78
2023-04-22T18:24:52.218Z,41.76
2023-04-22T18:27:18.655Z,41.80
2023-04-22T18:29:46.674Z,41.85
2023-04-22T18:32:13.864Z,41.71
2023-04-22T18:34:40.932Z,41.21
2023-04-22T18:37:07.595Z,41.26
2023-04-22T18:39:34.032Z,42.57
2023-04-22T18:42:02.047Z,42.22
2023-04-22T18:44:28.532Z,42.00
2023-04-22T18:46:54.998Z,42.71
2023-04-22T18:49:21.548Z,41.61
2023-04-22T18:51:49.380Z,42.14
2023-04-22T18:54:15.830Z,42.66
2023-04-22T18:56:42.272Z,42.43
2023-04-22T18:59:08.837Z,42.59
2023-04-22T19:01:35.914Z,42.09
2023-04-22T19:04:02.605Z,42.23
2023-04-22T19:06:29.135Z,43.24
2023-04-22T19:08:56.746Z,42.79
2023-04-22T19:11:23.921Z,42.85
2023-04-22T19:13:53.123Z,42.72
2023-04-22T19:16:20.184Z,43.24
2023-04-22T19:18:46.648Z,43.36
2023-04-22T19:21:13.277Z,43.68
2023-04-22T19:23:40.727Z,44.53
2023-04-22T19:26:09.628Z,44.31
2023-04-22T19:28:36.566Z,44.86
2023-04-22T19:31:04.832Z,44.88
2023-04-22T19:33:31.678Z,45.13
2023-04-22T19:35:58.202Z,44.86
2023-04-22T19:38:24.661Z,45.70
2023-04-22T19:40:51.192Z,48.22
2023-04-22T19:43:18.974Z,51.32
2023-04-22T19:45:46.358Z,53.52
2023-04-22T19:48:13.405Z,55.10
2023-04-22T19:50:43.102Z,55.53
2023-04-22T19:53:10.535Z,56.45
2023-04-22T19:55:38.346Z,56.68
2023-04-22T19:58:05.617Z,56.75
2023-04-22T20:00:32.921Z,57.42
2023-04-22T20:02:59.718Z,57.70
2023-04-22T20:05:27.325Z,57.94
2023-04-22T20:07:58.023Z,57.88
2023-04-22T20:10:26.005Z,58.15
2023-04-22T20:12:53.216Z,58.53
2023-04-22T20:15:20.445Z,58.33
2023-04-22T20:17:47.081Z,58.12
2023-04-22T20:20:15.672Z,58.40
2023-04-22T20:22:44.196Z,58.55
2023-04-22T20:25:17.017Z,59.29
2023-04-22T20:27:43.719Z,59.42
2023-04-22T20:30:11.646Z,59.15
2023-04-22T20:32:38.473Z,59.00
2023-04-22T20:35:06.717Z,59.84
2023-04-22T20:37:37.440Z,60.08
2023-04-22T20:40:05.447Z,60.25
2023-04-22T20:42:32.923Z,60.70
2023-04-22T20:44:59.381Z,60.75
2023-04-22T20:47:25.856Z,61.05
2023-04-22T20:49:52.466Z,61.02
2023-04-22T20:52:19.246Z,60.93
2023-04-22T20:54:46.081Z,60.94
2023-04-22T20:57:12.820Z,60.45
2023-04-22T20:59:39.566Z,60.96
2023-04-22T21:02:06.878Z,60.71
2023-04-22T21:04:34.487Z,61.19
2023-04-22T21:07:06.555Z,61.17
2023-04-22T21:09:33.374Z,61.98
2023-04-22T21:12:00.047Z,61.67
2023-04-22T21:14:26.877Z,63.15
2023-04-22T21:17:00.874Z,63.85
2023-04-22T21:19:32.977Z,63.95
2023-04-22T21:22:05.332Z,64.08
2023-04-22T21:24:32.967Z,63.71
2023-04-22T21:26:59.526Z,63.66
2023-04-22T21:29:26.294Z,64.69
2023-04-22T21:32:07.230Z,64.23
2023-04-22T21:34:35.136Z,64.35
2023-04-22T21:37:01.854Z,64.17
2023-04-22T21:39:29.461Z,64.17
2023-04-22T21:41:55.925Z,64.18
2023-04-22T21:44:22.402Z,64.59
2023-04-22T21:46:48.817Z,64.46
2023-04-22T21:49:15.403Z,64.47
2023-04-22T21:51:41.977Z,64.44
2023-04-22T21:54:08.632Z,64.72
2023-04-22T21:56:35.797Z,64.81
2023-04-22T21:59:02.414Z,65.24
2023-04-22T22:01:29.050Z,65.93
2023-04-22T22:03:55.727Z,66.89
2023-04-22T22:06:22.353Z,66.85
2023-04-22T22:08:49.099Z,67.08
2023-04-22T22:11:27.590Z,67.33
2023-04-22T22:13:56.715Z,67.77
2023-04-22T22:16:23.392Z,67.63
2023-04-22T22:18:50.670Z,67.69
2023-04-22T22:21:17.748Z,67.78
2023-04-22T22:23:44.207Z,67.38
2023-04-22T22:26:11.028Z,67.46
2023-04-22T22:28:38.094Z,67.87
2023-04-22T22:31:04.764Z,68.15
2023-04-22T22:33:31.374Z,68.50
2023-04-22T22:35:57.945Z,69.14
2023-04-22T22:38:24.576Z,69.36
2023-04-22T22:40:51.052Z,69.06
2023-04-22T22:43:17.555Z,69.02
2023-04-22T22:45:44.120Z,69.28
2023-04-22T22:48:10.985Z,69.44
2023-04-22T22:50:37.803Z,69.07
2023-04-22T22:53:04.336Z,70.09
2023-04-22T22:55:30.911Z,70.18
2023-04-22T22:57:57.353Z,69.71
2023-04-22T23:00:24.044Z,69.30
2023-04-22T23:02:50.712Z,69.67
2023-04-22T23:05:17.695Z,70.17
2023-04-22T23:07:44.472Z,70.63
2023-04-22T23:10:11.150Z,70.34
2023-04-22T23:12:37.757Z,70.35
2023-04-22T23:15:05.541Z,70.58
2023-04-22T23:17:32.301Z,70.40
2023-04-22T23:20:01.162Z,70.94
2023-04-22T23:22:29.619Z,70.87
2023-04-22T23:24:56.548Z,71.05
2023-04-22T23:27:23.236Z,70.89
2023-04-22T23:29:49.969Z,70.72
2023-04-22T23:32:19.700Z,70.71
2023-04-22T23:34:49.402Z,71.37
2023-04-22T23:37:16.414Z,71.42
2023-04-22T23:39:43.264Z,71.42
2023-04-22T23:42:10.321Z,71.00
2023-04-22T23:44:37.031Z,71.68
2023-04-22T23:47:03.970Z,72.63
2023-04-22T23:49:30.986Z,73.16
2023-04-22T23:51:57.511Z,73.05
2023-04-22T23:54:24.449Z,73.47
2023-04-22T23:56:51.402Z,73.14
2023-04-22T23:59:18.209Z,73.85
